createdAt,value
2022-12-03T00:00:54.309Z,8.60
2022-12-03T00:03:21.688Z,8.50
2022-12-03T00:05:49.450Z,8.48
2022-12-03T00:08:16.922Z,7.85
2022-12-03T00:10:44.229Z,8.95
2022-12-03T00:13:11.526Z,9.13
2022-12-03T00:15:38.794Z,8.23
2022-12-03T00:18:06.148Z,8.65
2022-12-03T00:20:33.448Z,8.07
2022-12-03T00:23:00.733Z,8.00
2022-12-03T00:25:28.073Z,7.85
2022-12-03T00:27:55.407Z,7.78
2022-12-03T00:30:22.650Z,9.13
2022-12-03T00:32:49.920Z,8.70
2022-12-03T00:35:17.269Z,7.88
2022-12-03T00:37:44.539Z,8.05
2022-12-03T00:40:12.340Z,8.82
2022-12-03T00:42:39.585Z,8.40
2022-12-03T00:45:07.110Z,12.20
2022-12-03T00:47:34.369Z,8.85
2022-12-03T00:50:01.661Z,8.45
2022-12-03T00:52:28.944Z,8.98
2022-12-03T00:54:56.296Z,8.35
2022-12-03T00:57:23.740Z,8.60
2022-12-03T00:59:51.004Z,8.40
2022-12-03T01:02:18.361Z,9.10
2022-12-03T01:04:45.813Z,8.93
2022-12-03T01:07:13.137Z,8.05
2022-12-03T01:09:40.378Z,9.07
2022-12-03T01:12:07.659Z,8.75
2022-12-03T01:14:34.913Z,8.48
2022-12-03T01:17:02.133Z,8.18
2022-12-03T01:19:29.576Z,8.38
2022-12-03T01:21:57.039Z,8.35
2022-12-03T01:24:24.315Z,8.10
2022-12-03T01:26:51.738Z,8.45
2022-12-03T01:29:19.010Z,8.93
2022-12-03T01:32:04.729Z,8.57
2022-12-03T01:34:32.040Z,7.80
2022-12-03T01:36:59.606Z,8.80
2022-12-03T01:39:26.879Z,9.35
2022-12-03T01:41:54.791Z,8.70
2022-12-03T01:44:23.915Z,8.23
2022-12-03T01:46:52.132Z,8.50
2022-12-03T01:49:42.671Z,8.07
2022-12-03T01:52:18.201Z,8.40
2022-12-03T01:54:47.709Z,8.68
2022-12-03T01:57:20.816Z,8.68
2022-12-03T01:59:48.619Z,8.45
2022-12-03T02:02:18.749Z,8.38
2022-12-03T02:04:46.093Z,9.00
2022-12-03T02:07:19.372Z,8.65
2022-12-03T02:09:46.612Z,8.75
2022-12-03T02:12:15.503Z,8.93
2022-12-03T02:14:42.870Z,9.05
2022-12-03T02:17:10.408Z,9.27
2022-12-03T02:19:37.659Z,9.10
2022-12-03T02:22:11.094Z,9.60
2022-12-03T02:24:43.308Z,9.25
2022-12-03T02:27:10.572Z,10.20
2022-12-03T02:29:37.874Z,9.50
2022-12-03T02:32:05.256Z,10.48
2022-12-03T02:34:36.686Z,10.30
2022-12-03T02:37:05.120Z,9.80
2022-12-03T02:39:32.996Z,10.18
2022-12-03T02:42:18.733Z,10.02
2022-12-03T02:44:46.077Z,9.20
2022-12-03T02:47:13.564Z,8.57
2022-12-03T02:49:41.314Z,10.40
2022-12-03T02:52:08.609Z,10.73
2022-12-03T02:54:36.195Z,9.05
2022-12-03T02:57:03.583Z,11.27
2022-12-03T02:59:30.856Z,11.60
2022-12-03T03:01:58.315Z,10.68
2022-12-03T03:04:26.006Z,10.73
2022-12-03T03:06:53.489Z,9.80
2022-12-03T03:09:21.508Z,10.10
2022-12-03T03:11:48.812Z,11.18
2022-12-03T03:14:16.142Z,10.65
2022-12-03T03:16:43.590Z,11.05
2022-12-03T03:19:10.983Z,11.13
2022-12-03T03:21:38.505Z,10.60
2022-12-03T03:24:06.044Z,10.20
2022-12-03T03:26:33.419Z,9.82
2022-12-03T03:29:03.141Z,9.63
2022-12-03T03:31:30.523Z,10.25
2022-12-03T03:33:57.929Z,11.25
2022-12-03T03:36:26.037Z,11.25
2022-12-03T03:38:53.417Z,10.55
2022-12-03T03:41:21.679Z,10.27
2022-12-03T03:43:49.796Z,10.90
2022-12-03T03:46:18.085Z,9.88
2022-12-03T03:48:45.510Z,9.98
2022-12-03T03:51:13.193Z,9.93
2022-12-03T03:53:42.021Z,9.48
2022-12-03T03:56:09.927Z,9.82
2022-12-03T03:58:37.427Z,10.52
2022-12-03T04:01:04.772Z,9.43
2022-12-03T04:03:32.109Z,8.90
2022-12-03T04:05:59.355Z,9.68
2022-12-03T04:08:26.745Z,9.07
2022-12-03T04:11:12.980Z,9.00
2022-12-03T04:13:40.246Z,9.40
2022-12-03T04:16:07.633Z,8.93
2022-12-03T04:18:44.063Z,9.38
2022-12-03T04:21:30.132Z,9.75
2022-12-03T04:23:57.443Z,9.05
2022-12-03T04:26:43.681Z,8.77
2022-12-03T04:29:11.151Z,8.95
2022-12-03T04:31:57.312Z,8.88
2022-12-03T04:34:43.655Z,8.73
2022-12-03T04:37:10.977Z,9.10
2022-12-03T04:39:38.313Z,8.75
2022-12-03T04:42:06.413Z,9.35
2022-12-03T04:44:35.760Z,8.80
2022-12-03T04:47:05.870Z,7.57
2022-12-03T04:49:33.982Z,10.50
2022-12-03T04:52:01.282Z,10.07
2022-12-03T04:54:29.089Z,10.60
2022-12-03T04:56:56.475Z,9.90
2022-12-03T04:59:23.799Z,10.13
2022-12-03T05:01:51.206Z,10.27
2022-12-03T05:04:18.613Z,11.07
2022-12-03T05:06:45.897Z,11.13
2022-12-03T05:09:13.268Z,10.63
2022-12-03T05:11:41.049Z,11.25
2022-12-03T05:14:08.388Z,11.65
2022-12-03T05:16:35.724Z,12.65
2022-12-03T05:19:06.609Z,13.98
2022-12-03T05:21:33.904Z,13.85
2022-12-03T05:24:01.242Z,14.80
2022-12-03T05:26:28.554Z,14.88
2022-12-03T05:28:56.138Z,14.85
2022-12-03T05:31:23.474Z,16.15
2022-12-03T05:33:50.802Z,18.25
2022-12-03T05:36:18.049Z,17.40
2022-12-03T05:38:45.350Z,16.55
2022-12-03T05:41:31.327Z,16.52
2022-12-03T05:43:58.650Z,15.27
2022-12-03T05:46:25.946Z,15.52
2022-12-03T05:48:53.218Z,15.10
2022-12-03T05:51:20.449Z,15.90
2022-12-03T05:53:48.199Z,15.73
2022-12-03T05:56:15.409Z,16.05
2022-12-03T05:58:42.651Z,15.60
2022-12-03T06:01:09.894Z,16.40
2022-12-03T06:03:37.253Z,16.85
2022-12-03T06:06:04.740Z,18.40
2022-12-03T06:08:31.964Z,16.77
2022-12-03T06:11:01.929Z,19.02
2022-12-03T06:13:29.185Z,18.80
2022-12-03T06:15:56.511Z,17.60
2022-12-03T06:18:23.858Z,18.05
2022-12-03T06:20:51.129Z,17.17
2022-12-03T06:23:18.379Z,15.70
2022-12-03T06:25:45.623Z,16.33
2022-12-03T06:28:12.881Z,16.00
2022-12-03T06:30:40.148Z,15.57
2022-12-03T06:33:10.472Z,16.45
2022-12-03T06:35:37.732Z,16.08
2022-12-03T06:38:05.224Z,15.13
2022-12-03T06:40:32.479Z,16.00
2022-12-03T06:42:59.781Z,17.17
2022-12-03T06:45:27.068Z,16.33
2022-12-03T06:47:54.298Z,15.93
2022-12-03T06:50:21.564Z,17.63
2022-12-03T06:52:48.777Z,15.98
2022-12-03T06:55:16.110Z,16.60
2022-12-03T06:57:43.390Z,15.75
2022-12-03T07:00:10.983Z,16.77
2022-12-03T07:02:38.330Z,15.95
2022-12-03T07:05:06.145Z,16.55
2022-12-03T07:07:33.587Z,16.20
2022-12-03T07:10:00.909Z,16.80
2022-12-03T07:12:28.258Z,16.50
2022-12-03T07:14:55.956Z,15.70
2022-12-03T07:17:23.591Z,15.35
2022-12-03T07:19:50.872Z,16.00
2022-12-03T07:22:18.162Z,17.10
2022-12-03T07:24:45.417Z,16.25
2022-12-03T07:27:12.660Z,16.42
2022-12-03T07:29:40.329Z,15.13
2022-12-03T07:32:07.575Z,16.45
2022-12-03T07:34:34.827Z,14.73
2022-12-03T07:37:02.059Z,13.63
2022-12-03T07:39:29.371Z,15.13
2022-12-03T07:41:56.636Z,15.88
2022-12-03T07:44:23.879Z,15.05
2022-12-03T07:46:51.156Z,15.77
2022-12-03T07:49:18.491Z,15.82
2022-12-03T07:51:53.766Z,16.33
2022-12-03T07:54:21.577Z,16.60
2022-12-03T07:56:48.831Z,15.95
2022-12-03T07:59:16.465Z,15.18
2022-12-03T08:01:43.940Z,16.00
2022-12-03T08:04:15.003Z,15.88
2022-12-03T08:06:42.319Z,15.30
2022-12-03T08:09:14.593Z,15.13
2022-12-03T08:11:45.241Z,15.57
2022-12-03T08:14:13.887Z,15.93
2022-12-03T08:16:41.943Z,15.00
2022-12-03T08:19:10.659Z,14.43
2022-12-03T08:21:38.382Z,15.13
2022-12-03T08:24:17.466Z,14.93
2022-12-03T08:26:45.517Z,15.70
2022-12-03T08:29:14.229Z,13.80
2022-12-03T08:31:41.861Z,14.63
2022-12-03T08:34:28.524Z,14.90
2022-12-03T08:37:00.041Z,14.90
2022-12-03T08:39:33.609Z,14.52
2022-12-03T08:42:28.061Z,14.98
2022-12-03T08:44:56.123Z,16.50
2022-12-03T08:47:24.538Z,15.48
2022-12-03T08:49:55.009Z,14.95
2022-12-03T08:52:23.701Z,15.55
2022-12-03T08:54:55.212Z,14.75
2022-12-03T08:57:23.831Z,14.55
2022-12-03T08:59:52.492Z,13.82
2022-12-03T09:02:23.277Z,13.32
2022-12-03T09:04:52.897Z,14.10
2022-12-03T09:07:20.433Z,14.15
2022-12-03T09:09:47.710Z,14.77
2022-12-03T09:12:14.955Z,13.20
2022-12-03T09:14:42.200Z,14.07
2022-12-03T09:17:09.585Z,13.80
2022-12-03T09:19:40.110Z,13.85
2022-12-03T09:22:12.096Z,14.45
2022-12-03T09:24:39.345Z,11.98
2022-12-03T09:27:06.577Z,13.40
2022-12-03T09:29:33.811Z,13.43
2022-12-03T09:32:01.173Z,13.27
2022-12-03T09:34:28.577Z,13.00
2022-12-03T09:36:55.836Z,14.88
2022-12-03T09:39:23.138Z,13.30
2022-12-03T09:41:50.583Z,14.02
2022-12-03T09:44:18.410Z,11.07
2022-12-03T09:46:46.479Z,13.20
2022-12-03T09:49:16.183Z,13.23
2022-12-03T09:51:44.560Z,14.00
2022-12-03T09:54:17.032Z,14.68
2022-12-03T09:56:44.316Z,14.25
2022-12-03T09:59:15.120Z,14.13
2022-12-03T10:01:42.684Z,14.25
2022-12-03T10:04:10.057Z,14.93
2022-12-03T10:06:42.377Z,14.93
2022-12-03T10:09:14.552Z,14.07
2022-12-03T10:11:41.805Z,14.85
2022-12-03T10:14:11.523Z,14.55
2022-12-03T10:16:40.440Z,14.17
2022-12-03T10:19:10.151Z,14.38
2022-12-03T10:21:37.983Z,13.75
2022-12-03T10:24:21.686Z,14.40
2022-12-03T10:26:50.101Z,14.52
2022-12-03T10:29:21.996Z,15.52
2022-12-03T10:31:59.392Z,14.23
2022-12-03T10:34:37.240Z,13.82
2022-12-03T10:37:18.195Z,15.18
2022-12-03T10:39:57.839Z,15.02
2022-12-03T10:42:29.196Z,15.38
2022-12-03T10:45:09.788Z,15.18
2022-12-03T10:47:37.269Z,14.82
2022-12-03T10:50:06.116Z,15.38
2022-12-03T10:52:33.609Z,15.10
2022-12-03T10:55:00.934Z,15.52
2022-12-03T10:57:28.285Z,16.17
2022-12-03T10:59:55.610Z,15.25
2022-12-03T11:02:24.049Z,16.20
2022-12-03T11:04:52.228Z,15.50
2022-12-03T11:07:21.035Z,15.85
2022-12-03T11:09:50.443Z,16.67
2022-12-03T11:12:28.242Z,16.92
2022-12-03T11:14:56.646Z,16.55
2022-12-03T11:17:42.967Z,16.30
2022-12-03T11:20:22.544Z,16.05
2022-12-03T11:22:51.102Z,17.52
2022-12-03T11:25:27.397Z,15.80
2022-12-03T11:28:14.893Z,16.15
2022-12-03T11:30:51.422Z,16.77
2022-12-03T11:33:24.702Z,15.40
2022-12-03T11:36:04.342Z,14.65
2022-12-03T11:38:34.707Z,14.77
2022-12-03T11:41:08.080Z,15.38
2022-12-03T11:43:53.936Z,15.30
2022-12-03T11:46:22.753Z,14.73
2022-12-03T11:48:51.380Z,15.93
2022-12-03T11:51:20.534Z,17.20
2022-12-03T11:53:48.023Z,15.68
2022-12-03T11:56:19.649Z,15.95
2022-12-03T11:58:47.763Z,14.90
2022-12-03T12:01:16.073Z,11.82
2022-12-03T12:03:48.248Z,16.95
2022-12-03T12:06:17.309Z,17.02
2022-12-03T12:08:50.785Z,15.50
2022-12-03T12:11:21.135Z,15.90
2022-12-03T12:13:56.614Z,15.77
2022-12-03T12:16:43.500Z,15.60
2022-12-03T12:19:29.555Z,16.35
2022-12-03T12:21:57.499Z,14.82
2022-12-03T12:24:31.725Z,16.80
2022-12-03T12:29:51.917Z,16.13
2022-12-03T12:32:23.113Z,17.38
2022-12-03T12:34:53.446Z,15.98
2022-12-03T12:37:47.327Z,17.40
2022-12-03T12:40:17.669Z,17.00
2022-12-03T12:42:50.335Z,16.95
2022-12-03T12:45:20.399Z,15.45
2022-12-03T12:47:49.906Z,17.63
2022-12-03T12:50:18.812Z,17.67
2022-12-03T12:53:08.988Z,17.88
2022-12-03T12:55:36.206Z,13.95
2022-12-03T12:58:06.642Z,17.83
2022-12-03T13:00:33.949Z,17.45
2022-12-03T13:03:03.025Z,18.30
2022-12-03T13:05:40.841Z,18.67
2022-12-03T13:08:31.469Z,18.42
2022-12-03T13:10:59.511Z,19.45
2022-12-03T13:13:29.596Z,18.15
2022-12-03T13:15:56.802Z,18.95
2022-12-03T13:18:28.763Z,18.50
2022-12-03T13:20:56.251Z,17.75
2022-12-03T13:23:23.496Z,18.92
2022-12-03T13:26:09.272Z,18.42
2022-12-03T13:28:41.529Z,17.98
2022-12-03T13:31:32.626Z,19.10
2022-12-03T13:34:00.589Z,17.70
2022-12-03T13:36:43.738Z,18.65
2022-12-03T13:39:20.329Z,16.83
2022-12-03T13:42:06.731Z,18.05
2022-12-03T13:44:34.350Z,17.92
2022-12-03T13:47:03.209Z,18.52
2022-12-03T13:49:30.835Z,18.58
2022-12-03T13:51:58.076Z,18.90
2022-12-03T13:54:28.474Z,17.13
2022-12-03T13:56:55.785Z,18.35
2022-12-03T13:59:26.195Z,18.02
2022-12-03T14:01:54.060Z,16.42
2022-12-03T14:04:21.338Z,17.27
2022-12-03T14:06:48.621Z,17.73
2022-12-03T14:09:15.934Z,17.08
2022-12-03T14:12:02.110Z,17.27
2022-12-03T14:14:29.345Z,16.42
2022-12-03T14:16:59.894Z,19.00
2022-12-03T14:19:27.616Z,17.83
2022-12-03T14:21:54.837Z,18.35
2022-12-03T14:24:22.083Z,18.40
2022-12-03T14:26:49.406Z,18.40
2022-12-03T14:29:16.656Z,17.33
2022-12-03T14:31:43.911Z,17.45
2022-12-03T14:34:11.278Z,16.70
2022-12-03T14:36:38.533Z,17.50
2022-12-03T14:39:05.775Z,18.42
2022-12-03T14:41:51.623Z,17.88
2022-12-03T14:44:21.870Z,17.15
2022-12-03T14:46:52.680Z,17.77
2022-12-03T14:49:22.725Z,19.33
2022-12-03T14:51:50.036Z,17.13
2022-12-03T14:54:17.331Z,18.13
2022-12-03T14:56:44.568Z,17.98
2022-12-03T14:59:11.819Z,16.88
2022-12-03T15:01:39.187Z,17.25
2022-12-03T15:04:06.606Z,18.65
2022-12-03T15:06:33.962Z,18.08
2022-12-03T15:09:01.288Z,19.35
2022-12-03T15:11:28.729Z,16.55
2022-12-03T15:13:56.006Z,19.20
2022-12-03T15:16:23.854Z,17.38
2022-12-03T15:18:51.195Z,17.55
2022-12-03T15:21:18.440Z,18.48
2022-12-03T15:23:45.681Z,18.38
2022-12-03T15:26:13.088Z,16.52
2022-12-03T15:28:43.019Z,17.92
2022-12-03T15:31:14.113Z,17.08
2022-12-03T15:33:41.403Z,18.38
2022-12-03T15:36:08.870Z,17.70
2022-12-03T15:38:36.182Z,17.85
2022-12-03T15:41:21.065Z,18.10
2022-12-03T15:43:48.886Z,18.40
2022-12-03T15:46:16.289Z,18.15
2022-12-03T15:48:43.615Z,17.40
2022-12-03T15:51:10.980Z,18.88
2022-12-03T15:53:38.509Z,17.55
2022-12-03T15:56:05.834Z,17.80
2022-12-03T15:58:33.205Z,17.50
2022-12-03T16:01:00.446Z,17.63
2022-12-03T16:03:27.765Z,17.67
2022-12-03T16:05:55.121Z,17.17
2022-12-03T16:08:22.474Z,16.98
2022-12-03T16:10:49.831Z,19.23
2022-12-03T16:13:17.151Z,18.00
2022-12-03T16:15:44.975Z,17.80
2022-12-03T16:18:12.240Z,19.27
2022-12-03T16:20:39.498Z,17.60
2022-12-03T16:23:07.312Z,19.45
2022-12-03T16:25:34.680Z,19.13
2022-12-03T16:28:01.972Z,17.05
2022-12-03T16:30:29.773Z,17.77
2022-12-03T16:32:57.094Z,18.55
2022-12-03T16:35:24.444Z,19.45
2022-12-03T16:37:51.714Z,41.35
2022-12-03T16:40:19.057Z,17.90
2022-12-03T16:42:46.363Z,19.60
2022-12-03T16:45:33.493Z,19.52
2022-12-03T16:48:01.482Z,19.23
2022-12-03T16:50:30.313Z,18.33
2022-12-03T16:52:58.042Z,18.25
2022-12-03T16:55:25.458Z,19.35
2022-12-03T16:57:52.693Z,17.65
2022-12-03T17:00:21.928Z,19.00
2022-12-03T17:02:49.418Z,18.17
2022-12-03T17:05:16.836Z,19.25
2022-12-03T17:07:44.236Z,19.10
2022-12-03T17:10:11.871Z,16.95
2022-12-03T17:13:07.724Z,19.48
2022-12-03T17:15:26.524Z,19.65
2022-12-03T17:17:53.849Z,21.20
2022-12-03T17:20:21.099Z,20.52
2022-12-03T17:22:48.410Z,17.38
2022-12-03T17:25:15.848Z,15.85
2022-12-03T17:27:45.555Z,18.02
2022-12-03T17:30:13.574Z,17.95
2022-12-03T17:32:40.969Z,18.63
2022-12-03T17:35:08.478Z,18.75
2022-12-03T17:37:36.028Z,19.00
2022-12-03T17:40:05.182Z,17.98
2022-12-03T17:42:32.422Z,19.98
2022-12-03T17:44:59.665Z,18.75
2022-12-03T17:47:26.920Z,18.67
2022-12-03T17:49:54.339Z,18.55
2022-12-03T17:52:21.763Z,18.65
2022-12-03T17:55:10.143Z,19.50
2022-12-03T17:57:36.345Z,18.00
2022-12-03T18:00:03.703Z,19.40
2022-12-03T18:02:30.964Z,20.67
2022-12-03T18:04:58.238Z,21.83
2022-12-03T18:07:25.616Z,22.33
2022-12-03T18:09:53.372Z,18.33
2022-12-03T18:12:20.902Z,19.92
2022-12-03T18:14:48.139Z,20.55
2022-12-03T18:17:15.402Z,18.95
2022-12-03T18:19:42.654Z,18.92
2022-12-03T18:22:10.109Z,19.90
2022-12-03T18:24:37.428Z,20.98
2022-12-03T18:27:04.751Z,20.13
2022-12-03T18:29:32.035Z,19.10
2022-12-03T18:31:59.351Z,18.63
2022-12-03T18:34:26.644Z,20.05
2022-12-03T18:36:53.959Z,18.90
2022-12-03T18:39:25.641Z,19.58
2022-12-03T18:41:53.428Z,19.50
2022-12-03T18:44:20.889Z,18.25
2022-12-03T18:46:55.505Z,18.55
2022-12-03T18:49:22.935Z,19.30
2022-12-03T18:51:54.561Z,19.48
2022-12-03T18:54:26.084Z,18.70
2022-12-03T18:56:53.309Z,19.10
2022-12-03T18:59:20.536Z,18.83
2022-12-03T19:01:47.850Z,19.05
2022-12-03T19:04:15.141Z,18.92
2022-12-03T19:06:42.405Z,18.73
2022-12-03T19:09:09.665Z,38.60
2022-12-03T19:11:36.969Z,20.73
2022-12-03T19:14:04.230Z,19.75
2022-12-03T19:16:31.779Z,19.92
2022-12-03T19:18:59.135Z,19.15
2022-12-03T19:21:30.680Z,19.85
2022-12-03T19:24:23.224Z,18.50
2022-12-03T19:26:48.377Z,17.90
2022-12-03T19:29:15.639Z,18.77
2022-12-03T19:31:42.985Z,17.52
2022-12-03T19:34:10.274Z,18.33
2022-12-03T19:36:37.597Z,18.75
2022-12-03T19:39:04.922Z,18.70
2022-12-03T19:41:32.180Z,19.55
2022-12-03T19:43:59.606Z,19.17
2022-12-03T19:46:31.355Z,20.15
2022-12-03T19:48:58.732Z,19.40
2022-12-03T19:51:34.752Z,19.00
2022-12-03T19:54:03.028Z,18.92
2022-12-03T19:56:30.576Z,18.40
2022-12-03T19:58:58.023Z,18.15
2022-12-03T20:01:27.039Z,19.40
2022-12-03T20:03:55.307Z,27.17
2022-12-03T20:06:24.649Z,19.77
2022-12-03T20:08:52.360Z,19.58
2022-12-03T20:11:23.799Z,20.02
2022-12-03T20:13:55.336Z,18.58
2022-12-03T20:16:23.351Z,18.63
2022-12-03T20:18:50.838Z,18.40
2022-12-03T20:21:18.996Z,18.48
2022-12-03T20:23:47.301Z,19.75
2022-12-03T20:26:15.843Z,18.25
2022-12-03T20:28:43.168Z,17.33
2022-12-03T20:31:13.518Z,18.42
2022-12-03T20:33:41.738Z,17.38
2022-12-03T20:36:09.509Z,17.80
2022-12-03T20:38:37.315Z,18.83
2022-12-03T20:41:05.896Z,17.45
2022-12-03T20:43:33.233Z,17.27
2022-12-03T20:46:10.512Z,18.05
2022-12-03T20:48:38.317Z,17.70
2022-12-03T20:51:06.632Z,18.73
2022-12-03T20:53:34.320Z,17.83
2022-12-03T20:56:04.964Z,17.38
2022-12-03T20:58:32.643Z,17.70
2022-12-03T21:01:13.893Z,17.40
2022-12-03T21:03:42.807Z,17.35
2022-12-03T21:06:10.584Z,34.72
2022-12-03T21:08:42.407Z,18.48
2022-12-03T21:11:14.919Z,18.92
2022-12-03T21:13:44.147Z,17.55
2022-12-03T21:16:13.603Z,16.73
2022-12-03T21:18:41.342Z,16.70
2022-12-03T21:21:08.818Z,17.05
2022-12-03T21:23:36.234Z,17.45
2022-12-03T21:26:09.885Z,17.17
2022-12-03T21:28:38.390Z,17.38
2022-12-03T21:31:06.845Z,17.85
2022-12-03T21:33:34.244Z,17.33
2022-12-03T21:36:01.521Z,16.38
2022-12-03T21:38:30.079Z,18.90
2022-12-03T21:40:57.962Z,18.02
2022-12-03T21:43:25.792Z,18.13
2022-12-03T21:45:53.542Z,18.20
2022-12-03T21:48:21.312Z,21.27
2022-12-03T21:50:58.407Z,18.17
2022-12-03T21:53:25.715Z,18.02
2022-12-03T21:55:52.964Z,17.95
2022-12-03T21:58:20.179Z,18.38
2022-12-03T22:00:47.412Z,18.65
2022-12-03T22:03:14.831Z,18.88
2022-12-03T22:05:42.246Z,18.88
2022-12-03T22:08:09.816Z,18.50
2022-12-03T22:10:37.385Z,18.05
2022-12-03T22:13:04.796Z,18.73
2022-12-03T22:15:32.207Z,18.85
2022-12-03T22:17:59.569Z,19.52
2022-12-03T22:20:27.479Z,18.65
2022-12-03T22:22:54.728Z,20.23
2022-12-03T22:25:22.001Z,18.95
2022-12-03T22:27:49.295Z,18.17
2022-12-03T22:30:16.593Z,17.73
2022-12-03T22:32:43.882Z,18.85
2022-12-03T22:35:11.127Z,18.55
2022-12-03T22:37:38.394Z,19.65
2022-12-03T22:40:05.898Z,18.42
2022-12-03T22:42:33.217Z,18.50
2022-12-03T22:45:00.482Z,17.73
2022-12-03T22:47:27.719Z,17.85
2022-12-03T22:49:55.195Z,17.80
2022-12-03T22:52:22.718Z,17.88
2022-12-03T22:54:50.010Z,17.75
2022-12-03T22:57:17.282Z,16.45
2022-12-03T22:59:44.561Z,17.85
2022-12-03T23:02:11.846Z,16.48
2022-12-03T23:04:39.123Z,17.80
2022-12-03T23:07:08.193Z,17.27
2022-12-03T23:09:35.510Z,17.02
2022-12-03T23:12:02.841Z,16.95
2022-12-03T23:14:30.123Z,17.00
2022-12-03T23:16:57.359Z,17.20
2022-12-03T23:19:24.727Z,17.13
2022-12-03T23:21:51.978Z,16.55
2022-12-03T23:24:19.248Z,17.48
2022-12-03T23:26:46.505Z,17.38
2022-12-03T23:29:13.766Z,17.85
2022-12-03T23:31:41.075Z,18.23
2022-12-03T23:34:08.389Z,16.30
2022-12-03T23:36:35.677Z,17.20
2022-12-03T23:39:03.219Z,16.27
2022-12-03T23:41:30.445Z,16.33
2022-12-03T23:43:57.974Z,16.92
2022-12-03T23:46:27.369Z,15.80
2022-12-03T23:48:54.771Z,16.02
2022-12-03T23:51:24.105Z,15.73
2022-12-03T23:53:54.766Z,16.70
2022-12-03T23:56:27.472Z,16.70
2022-12-03T23:58:54.756Z,17.10
